Time;durP1;ratioP1;P1;durP2;ratioP2;P2;SDS_P1;SDS_P2;PMS_P1;PMS_P2;Temp;Humidity;BMP_temperature;BMP_pressure;BME280_temperature;BME280_humidity;BME280_pressure;Samples;Min_cycle;Max_cycle;Signal;HPM_P1;HPM_P2
2022/08/03 16:26:15;;;;;;;1.20;1.20;;;;;;;32.03;28.43;96911.78;3755236;28;22444;-62
2022/08/03 16:29:05;;;;;;;2.63;1.60;;;;;;;31.92;28.35;96905.88;4972371;28;20336;-66
2022/08/03 16:32:03;;;;;;;1.40;1.30;;;;;;;31.67;28.77;96904.88;4978531;28;20236;-69
2022/08/03 16:34:52;;;;;;;3.50;2.53;;;;;;;31.72;28.19;96908.22;4975320;28;20247;-69
2022/08/03 16:37:34;;;;;;;2.10;2.00;;;;;;;31.61;29.64;96906.97;4973960;28;20226;-68
2022/08/03 16:40:31;;;;;;;1.53;1.43;;;;;;;31.48;28.25;96903.34;4903437;28;20209;-63
2022/08/03 16:43:23;;;;;;;1.73;1.57;;;;;;;31.32;28.76;96908.56;4966929;28;20272;-66
2022/08/03 16:46:12;;;;;;;1.90;1.80;;;;;;;31.26;28.85;96907.13;4966936;28;20362;-67
2022/08/03 16:49:22;;;;;;;2.30;2.10;;;;;;;31.02;28.73;96911.19;4968486;28;20766;-68
2022/08/03 16:52:25;;;;;;;1.87;1.77;;;;;;;30.96;29.03;96905.06;4963400;28;20241;-65
2022/08/03 16:55:22;;;;;;;2.30;1.60;;;;;;;30.82;30.04;96910.72;4952416;28;20745;-65
2022/08/03 16:58:18;;;;;;;1.57;1.53;;;;;;;30.56;30.11;96908.78;4961697;28;20358;-65
2022/08/03 17:01:24;;;;;;;2.67;1.60;;;;;;;30.50;30.10;96903.78;4938532;28;20888;-67
2022/08/03 17:04:24;;;;;;;1.40;1.40;;;;;;;30.43;30.74;96907.81;4970697;28;21179;-66
2022/08/03 17:07:03;;;;;;;1.20;1.20;;;;;;;30.16;30.14;96915.19;4944364;28;20218;-67
2022/08/03 17:09:59;;;;;;;2.07;1.97;;;;;;;30.08;30.67;96910.50;4961317;28;20423;-69
2022/08/03 17:12:51;;;;;;;2.97;1.70;;;;;;;30.08;31.49;96915.16;4912363;28;20710;-63
2022/08/03 17:15:29;;;;;;;1.90;1.80;;;;;;;29.99;31.00;96915.13;4967643;28;20268;-65
2022/08/03 17:18:36;;;;;;;3.43;3.13;;;;;;;29.83;31.94;96906.56;4946873;28;20263;-68
2022/08/03 17:21:23;;;;;;;8.10;7.60;;;;;;;29.73;32.92;96915.84;4951465;28;20240;-64
2022/08/03 17:24:25;;;;;;;55.53;44.93;;;;;;;29.74;35.68;96915.56;4944398;28;20315;-65
2022/08/03 17:27:23;;;;;;;5.37;4.97;;;;;;;29.42;33.55;96917.50;4915558;28;20568;-66
2022/08/03 17:33:20;;;;;;;3.20;3.00;;;;;;;29.17;34.41;96914.28;4964279;28;20220;-65
2022/08/03 17:36:06;;;;;;;2.20;1.90;;;;;;;29.02;35.53;96914.69;4967601;28;20608;-69
2022/08/03 17:38:52;;;;;;;1.77;1.73;;;;;;;28.92;36.31;96914.94;4948953;28;20447;-68
2022/08/03 17:41:32;;;;;;;1.50;1.40;;;;;;;28.62;34.14;96922.72;4915407;28;20870;-66
2022/08/03 17:44:27;;;;;;;1.80;1.63;;;;;;;28.75;34.41;96921.84;4963623;28;20232;-67
2022/08/03 17:47:22;;;;;;;1.63;1.50;;;;;;;28.67;34.79;96923.38;4961885;28;20694;-65
2022/08/03 17:50:19;;;;;;;1.67;1.60;;;;;;;28.62;34.80;96920.78;4963553;28;20209;-66
2022/08/03 17:53:14;;;;;;;1.40;1.40;;;;;;;28.53;35.69;96922.66;4968095;28;20209;-68
2022/08/03 17:56:16;;;;;;;1.57;1.53;;;;;;;28.30;35.04;96928.88;4966303;28;20235;-67
2022/08/03 17:59:16;;;;;;;1.83;1.53;;;;;;;28.30;36.56;96917.97;4917616;28;20567;-66
2022/08/03 18:05:40;;;;;;;1.60;1.50;;;;;;;28.02;37.21;96926.16;4964845;28;20776;-68
2022/08/03 18:08:38;;;;;;;1.90;1.47;;;;;;;27.93;36.36;96935.31;4958043;28;20523;-68
2022/08/03 18:11:20;;;;;;;1.80;1.70;;;;;;;27.81;36.51;96928.50;4945893;28;20233;-65
2022/08/03 18:14:27;;;;;;;1.73;1.63;;;;;;;27.81;37.53;96938.56;4920340;28;20225;-65
2022/08/03 18:17:38;;;;;;;1.60;1.60;;;;;;;27.73;36.69;96934.66;4964286;28;20618;-65
2022/08/03 18:20:33;;;;;;;2.97;1.63;;;;;;;27.54;37.69;96935.53;4940808;28;21373;-67
2022/08/03 18:23:14;;;;;;;6.50;4.77;;;;;;;27.44;37.04;96941.13;4940041;28;20230;-66
2022/08/03 18:26:14;;;;;;;2.37;2.27;;;;;;;27.35;39.79;96932.84;4948392;28;20511;-67
2022/08/03 18:32:00;;;;;;;2.50;1.40;;;;;;;26.92;50.12;96939.31;4960771;28;20247;-67
2022/08/03 18:34:45;;;;;;;1.73;1.63;;;;;;;26.78;52.51;96944.66;4941891;28;20538;-65
2022/08/03 18:37:23;;;;;;;2.40;2.03;;;;;;;26.70;40.33;96937.16;4959846;28;20689;-67
2022/08/03 18:40:02;;;;;;;1.80;1.70;;;;;;;26.54;52.89;96937.41;4960517;28;20213;-68
2022/08/03 18:42:40;;;;;;;1.60;1.50;;;;;;;26.43;59.25;96936.72;4943177;28;20301;-66
2022/08/03 18:45:22;;;;;;;2.00;1.70;;;;;;;26.22;51.96;96936.19;4916731;28;20736;-66
2022/08/03 18:48:12;;;;;;;2.10;2.00;;;;;;;26.04;68.02;96940.47;4908489;28;20244;-66
2022/08/03 18:50:47;;;;;;;3.10;2.90;;;;;;;25.87;61.14;96946.38;4964308;28;20299;-67
2022/08/03 18:53:22;;;;;;;3.13;2.93;;;;;;;25.72;71.67;96941.94;4965844;28;20223;-67
2022/08/03 18:56:26;;;;;;;3.37;3.07;;;;;;;25.57;75.73;96951.03;4970477;28;20231;-64
2022/08/03 18:59:26;;;;;;;2.00;1.90;;;;;;;25.42;67.99;96943.88;4970591;28;20346;-66
2022/08/03 19:02:08;;;;;;;2.60;2.40;;;;;;;25.32;74.09;96947.47;4966451;28;20693;-67
2022/08/03 19:04:51;;;;;;;3.07;2.80;;;;;;;25.20;75.16;96955.19;4896790;28;20337;-65
2022/08/03 19:07:28;;;;;;;2.77;2.57;;;;;;;25.09;70.03;96951.75;4966845;28;20688;-66
2022/08/03 19:10:08;;;;;;;2.90;2.70;;;;;;;24.96;74.88;96955.94;4963687;28;20204;-66
2022/08/03 19:13:04;;;;;;;2.17;2.07;;;;;;;24.82;68.55;96953.88;4969774;28;20458;-67
2022/08/03 19:15:53;;;;;;;3.20;2.40;;;;;;;24.77;76.63;96953.88;4969312;28;20487;-66
2022/08/03 19:18:40;;;;;;;10.47;3.30;;;;;;;24.63;80.04;96945.56;4909362;28;21377;-66
2022/08/03 19:21:20;;;;;;;2.37;1.90;;;;;;;24.61;70.49;96963.97;4946682;28;20608;-66
2022/08/03 19:24:02;;;;;;;2.23;2.03;;;;;;;24.52;79.77;96963.78;4947432;28;20335;-67
2022/08/03 19:26:41;;;;;;;2.13;2.03;;;;;;;24.37;84.86;96963.84;4966661;28;20416;-64
2022/08/03 19:29:31;;;;;;;3.20;2.10;;;;;;;24.25;82.03;96962.28;4965669;28;20857;-67
2022/08/03 19:32:29;;;;;;;4.03;3.70;;;;;;;24.17;84.76;96965.59;4957497;28;20288;-67
2022/08/03 19:35:14;;;;;;;5.07;4.67;;;;;;;24.07;89.59;96968.34;4920707;28;20233;-64
2022/08/03 19:38:10;;;;;;;5.53;5.10;;;;;;;24.03;87.75;96962.66;4966751;28;20208;-64
2022/08/03 19:41:02;;;;;;;4.43;4.03;;;;;;;23.90;95.61;96966.75;4968715;28;20229;-68
2022/08/03 19:43:44;;;;;;;3.80;3.50;;;;;;;23.83;92.80;96963.53;4964697;28;20404;-67
2022/08/03 19:46:34;;;;;;;3.40;3.10;;;;;;;23.70;95.09;96963.03;4966176;28;20341;-68
2022/08/03 19:49:20;;;;;;;4.27;3.97;;;;;;;23.64;100.00;96958.69;4943600;28;20216;-63
2022/08/03 19:52:15;;;;;;;4.33;3.53;;;;;;;23.60;100.00;96956.81;4945155;28;20210;-64
2022/08/03 19:55:05;;;;;;;3.00;2.90;;;;;;;23.46;99.47;96951.97;4952212;28;20280;-66
2022/08/03 19:57:55;;;;;;;4.37;3.40;;;;;;;23.40;100.00;96962.00;4966378;28;20206;-66
2022/08/03 20:00:43;;;;;;;5.40;5.00;;;;;;;23.39;100.00;96959.56;4946652;28;20720;-67
2022/08/03 20:03:45;;;;;;;8.33;7.53;;;;;;;23.27;100.00;96959.84;4965353;28;20256;-67
2022/08/03 20:06:55;;;;;;;13.57;12.27;;;;;;;23.20;100.00;96961.97;4922188;28;21166;-68
2022/08/03 20:09:51;;;;;;;10.57;9.47;;;;;;;23.12;100.00;96958.75;4968658;28;20212;-67
2022/08/03 20:12:52;;;;;;;6.40;5.90;;;;;;;23.08;100.00;96960.38;4971059;28;20643;-64
2022/08/03 20:15:51;;;;;;;4.57;4.27;;;;;;;23.01;100.00;96965.25;4964850;28;20337;-65
2022/08/03 20:18:55;;;;;;;3.20;3.00;;;;;;;22.92;100.00;96966.84;4966191;28;20213;-68
2022/08/03 20:22:03;;;;;;;4.10;3.80;;;;;;;22.80;100.00;96969.81;4926609;28;20224;-68
2022/08/03 20:24:53;;;;;;;4.23;3.70;;;;;;;22.67;100.00;96961.16;4945037;28;20225;-66
2022/08/03 20:27:51;;;;;;;4.90;4.40;;;;;;;22.57;100.00;96971.16;4960887;28;20237;-64
2022/08/03 20:30:51;;;;;;;3.97;3.67;;;;;;;22.53;100.00;96965.47;4957634;28;20515;-68
2022/08/03 20:33:22;;;;;;;3.23;3.03;;;;;;;22.47;100.00;96967.31;4964678;28;20612;-67
2022/08/03 20:36:11;;;;;;;2.60;2.50;;;;;;;22.43;100.00;96963.50;4924999;28;20604;-66
2022/08/03 20:38:47;;;;;;;2.87;2.77;;;;;;;22.37;100.00;96961.88;4950850;28;20564;-65
2022/08/03 20:41:34;;;;;;;2.63;2.50;;;;;;;22.33;100.00;96964.28;4965612;28;20209;-66
2022/08/03 20:44:14;;;;;;;2.60;2.50;;;;;;;22.30;100.00;96962.13;4967982;28;20240;-64
2022/08/03 20:47:05;;;;;;;2.53;2.43;;;;;;;22.30;100.00;96961.31;4970617;28;20216;-64
2022/08/03 20:49:40;;;;;;;2.63;2.43;;;;;;;22.22;100.00;96955.38;4966175;28;20209;-67
2022/08/03 20:52:19;;;;;;;2.70;2.53;;;;;;;22.19;100.00;96963.16;4920024;28;20698;-65
2022/08/03 20:55:04;;;;;;;2.50;2.30;;;;;;;22.14;100.00;96961.25;4898899;28;20760;-64
2022/08/03 20:57:44;;;;;;;2.20;2.10;;;;;;;22.10;100.00;96962.84;4964366;28;20261;-65
2022/08/03 21:00:23;;;;;;;3.50;2.50;;;;;;;22.02;100.00;96955.28;4968213;28;20663;-68
2022/08/03 21:03:02;;;;;;;2.00;1.90;;;;;;;21.87;100.00;96964.13;4965434;28;20225;-68
2022/08/03 21:05:51;;;;;;;5.03;2.27;;;;;;;21.91;100.00;96960.66;4968759;28;20279;-65
2022/08/03 21:08:35;;;;;;;2.57;2.47;;;;;;;21.85;100.00;96963.56;4946173;28;20219;-68
2022/08/03 21:11:23;;;;;;;2.33;2.23;;;;;;;21.78;100.00;96964.63;4923301;28;20607;-68
2022/08/03 21:14:27;;;;;;;2.70;2.60;;;;;;;21.72;100.00;96964.84;4958086;28;20548;-66
2022/08/03 21:17:10;;;;;;;2.30;2.20;;;;;;;21.66;100.00;96964.81;4964687;28;20210;-68
2022/08/03 21:20:15;;;;;;;2.40;2.30;;;;;;;21.56;100.00;96959.34;4965789;28;20209;-67
2022/08/03 21:22:54;;;;;;;2.50;2.40;;;;;;;21.54;100.00;96975.78;4966330;28;20222;-66
2022/08/03 21:25:38;;;;;;;3.00;2.80;;;;;;;21.53;100.00;96973.34;4920900;28;20259;-66
2022/08/03 21:28:19;;;;;;;2.77;2.67;;;;;;;21.40;100.00;96966.53;4947716;28;20467;-65
2022/08/03 21:31:02;;;;;;;2.70;2.60;;;;;;;21.43;100.00;96965.22;4964954;28;20392;-68
2022/08/03 21:34:01;;;;;;;2.53;2.33;;;;;;;21.51;100.00;96968.22;4967171;28;20243;-65
2022/08/03 21:36:37;;;;;;;2.50;2.40;;;;;;;21.52;99.97;96969.03;4969249;28;20213;-68
2022/08/03 21:39:21;;;;;;;2.27;2.07;;;;;;;21.52;91.02;96971.72;4965994;28;20210;-66
2022/08/03 21:42:15;;;;;;;2.40;2.30;;;;;;;21.33;90.66;96960.56;4918713;28;20275;-68
2022/08/03 21:45:00;;;;;;;2.80;2.60;;;;;;;21.00;86.78;96965.94;4945254;28;20328;-66
2022/08/03 21:47:39;;;;;;;2.00;1.90;;;;;;;21.11;84.51;96969.53;4967875;28;20212;-66
2022/08/03 21:50:22;;;;;;;4.23;2.60;;;;;;;21.06;83.05;96972.19;4968455;28;20225;-68
2022/08/03 21:52:59;;;;;;;3.87;2.30;;;;;;;21.18;85.70;96975.53;4963681;28;20841;-64
2022/08/03 21:56:03;;;;;;;2.70;2.60;;;;;;;21.14;90.54;96981.69;4966979;28;20328;-66
2022/08/03 21:58:46;;;;;;;2.40;2.30;;;;;;;21.07;84.15;96969.25;4943686;28;20209;-65
2022/08/03 22:01:31;;;;;;;2.80;2.57;;;;;;;21.00;90.53;96979.41;4967768;28;20300;-68
2022/08/03 22:04:09;;;;;;;3.03;2.83;;;;;;;20.95;92.56;96977.50;4962863;28;20615;-64
2022/08/03 22:07:06;;;;;;;2.50;2.40;;;;;;;20.91;93.94;96981.78;4966016;28;20431;-65
2022/08/03 22:09:50;;;;;;;2.60;2.50;;;;;;;20.84;95.64;96977.66;4967101;28;20217;-64
2022/08/03 22:12:32;;;;;;;2.90;2.70;;;;;;;20.84;100.00;96973.13;4921235;28;20226;-67
2022/08/03 22:15:08;;;;;;;3.03;2.40;;;;;;;20.93;100.00;96973.44;4943813;28;20258;-65
2022/08/03 22:18:07;;;;;;;2.87;2.67;;;;;;;20.88;96.73;96973.41;4963302;28;20525;-67
2022/08/03 22:20:40;;;;;;;3.40;2.47;;;;;;;20.89;100.00;96975.84;4975074;28;20583;-65
2022/08/03 22:23:22;;;;;;;3.57;2.60;;;;;;;20.94;100.00;96966.97;4973374;28;20635;-67
2022/08/03 22:26:03;;;;;;;3.00;2.70;;;;;;;20.86;100.00;96970.97;4973872;28;20507;-67
2022/08/03 22:28:41;;;;;;;3.13;2.97;;;;;;;20.88;100.00;96968.00;4928467;28;20611;-65
2022/08/03 22:31:27;;;;;;;2.47;2.37;;;;;;;20.90;99.30;96972.09;4965217;28;20228;-67
2022/08/03 22:34:27;;;;;;;3.03;2.70;;;;;;;20.81;100.00;96979.81;4975506;28;20328;-65
2022/08/03 22:37:05;;;;;;;2.93;2.70;;;;;;;20.63;100.00;96980.13;4972291;28;20375;-65
2022/08/03 22:39:43;;;;;;;2.60;2.50;;;;;;;20.69;100.00;96973.75;4972296;28;20224;-64
2022/08/03 22:42:18;;;;;;;3.43;3.13;;;;;;;20.45;99.54;96973.22;4975125;28;20297;-67
2022/08/03 22:45:00;;;;;;;2.80;2.70;;;;;;;20.37;100.00;96980.66;4906772;28;20661;-65
2022/08/03 22:47:57;;;;;;;3.00;2.80;;;;;;;20.51;100.00;96975.72;4971669;28;20208;-65
2022/08/03 22:50:39;;;;;;;2.77;2.60;;;;;;;20.47;100.00;96982.66;4973573;28;20233;-67
2022/08/03 22:53:12;;;;;;;3.30;3.00;;;;;;;20.49;100.00;96975.16;4969731;28;20322;-68
2022/08/03 22:55:48;;;;;;;2.67;2.57;;;;;;;20.45;100.00;96975.91;4971094;28;20236;-65
2022/08/03 22:58:23;;;;;;;2.57;2.47;;;;;;;20.44;100.00;96976.97;4975692;28;20236;-68
2022/08/03 23:01:07;;;;;;;2.70;2.60;;;;;;;20.38;100.00;96981.50;4905259;28;20734;-67
2022/08/03 23:03:49;;;;;;;2.67;2.57;;;;;;;20.34;100.00;96980.38;4904345;28;20229;-67
2022/08/03 23:06:46;;;;;;;2.43;2.33;;;;;;;20.23;100.00;96991.00;4969628;28;20212;-67
2022/08/03 23:09:19;;;;;;;2.80;2.70;;;;;;;20.23;100.00;96992.91;4955074;28;20237;-66
2022/08/03 23:11:56;;;;;;;2.60;2.50;;;;;;;20.17;100.00;96993.91;4973979;28;20209;-67
2022/08/03 23:14:25;;;;;;;2.67;2.57;;;;;;;20.11;100.00;96984.94;4953448;28;20469;-67
2022/08/03 23:17:03;;;;;;;2.70;2.60;;;;;;;20.10;100.00;96986.84;4972685;28;20221;-68
2022/08/03 23:19:42;;;;;;;4.90;3.57;;;;;;;20.12;100.00;96991.16;4962695;28;20224;-68
2022/08/03 23:22:17;;;;;;;3.37;3.17;;;;;;;20.14;100.00;96995.22;4970631;28;20202;-64
2022/08/03 23:25:06;;;;;;;3.00;2.80;;;;;;;20.13;100.00;96998.97;4957579;28;20606;-68
2022/08/03 23:27:42;;;;;;;2.90;2.63;;;;;;;20.12;100.00;97002.72;4974449;28;20304;-68
2022/08/03 23:30:18;;;;;;;3.30;3.10;;;;;;;19.99;100.00;96992.34;4961408;28;20799;-64
2022/08/03 23:32:48;;;;;;;2.77;2.67;;;;;;;20.05;100.00;97004.78;4924223;28;20358;-68
2022/08/03 23:38:46;;;;;;;3.37;3.17;;;;;;;19.99;100.00;97011.97;4968538;28;20415;-67
2022/08/03 23:41:26;;;;;;;3.63;3.40;;;;;;;20.04;100.00;97001.25;4952183;28;20957;-67
2022/08/03 23:43:59;;;;;;;3.40;3.20;;;;;;;19.93;100.00;97003.03;4972058;28;20253;-67
2022/08/03 23:46:40;;;;;;;6.20;3.07;;;;;;;19.87;100.00;97000.47;4952662;28;20249;-67
2022/08/03 23:49:14;;;;;;;3.30;3.03;;;;;;;19.85;100.00;96999.91;4922928;28;20602;-65
2022/08/03 23:52:00;;;;;;;3.50;3.30;;;;;;;19.85;100.00;97002.59;4968321;28;20210;-68
2022/08/03 23:54:42;;;;;;;3.57;3.27;;;;;;;19.63;100.00;97004.19;4964881;28;20407;-67
2022/08/03 23:57:19;;;;;;;4.37;3.43;;;;;;;19.55;100.00;97006.50;4952893;28;20217;-66
